createdAt,value
2022-12-09T00:00:06.884Z,89.55
2022-12-09T00:02:33.923Z,89.33
2022-12-09T00:05:00.489Z,89.23
2022-12-09T00:07:27.250Z,89.58
2022-12-09T00:09:53.836Z,89.52
2022-12-09T00:12:20.323Z,89.36
2022-12-09T00:14:46.682Z,89.45
2022-12-09T00:17:13.443Z,89.48
2022-12-09T00:19:40.112Z,89.58
2022-12-09T00:22:06.528Z,89.49
2022-12-09T00:24:32.859Z,89.44
2022-12-09T00:26:59.314Z,89.92
2022-12-09T00:29:25.699Z,89.41
2022-12-09T00:31:52.082Z,89.47
2022-12-09T00:34:18.516Z,89.63
2022-12-09T00:36:45.026Z,89.60
2022-12-09T00:39:12.205Z,89.77
2022-12-09T00:41:38.928Z,89.60
2022-12-09T00:44:05.683Z,89.30
2022-12-09T00:46:32.349Z,89.36
2022-12-09T00:48:58.792Z,89.13
2022-12-09T00:51:25.684Z,89.71
2022-12-09T00:53:55.615Z,89.34
2022-12-09T00:56:24.251Z,88.98
2022-12-09T00:58:50.604Z,88.93
2022-12-09T01:01:17.031Z,89.39
2022-12-09T01:03:43.787Z,89.53
2022-12-09T01:06:14.312Z,89.16
2022-12-09T01:08:42.845Z,88.84
2022-12-09T01:11:16.447Z,88.94
2022-12-09T01:13:42.850Z,88.41
2022-12-09T01:16:24.755Z,88.75
2022-12-09T01:18:53.288Z,88.78
2022-12-09T01:21:19.812Z,88.78
2022-12-09T01:23:46.621Z,88.78
2022-12-09T01:26:13.348Z,88.53
2022-12-09T01:28:40.268Z,88.72
2022-12-09T01:31:15.686Z,87.82
2022-12-09T01:33:43.517Z,88.56
2022-12-09T01:36:13.788Z,88.32
2022-12-09T01:38:41.232Z,88.84
2022-12-09T01:41:07.804Z,88.49
2022-12-09T01:43:34.474Z,88.42
2022-12-09T01:46:00.864Z,88.74
2022-12-09T01:48:31.637Z,88.46
2022-12-09T01:51:03.323Z,88.62
2022-12-09T01:53:35.409Z,88.11
2022-12-09T01:56:07.260Z,88.53
2022-12-09T01:58:33.871Z,88.48
2022-12-09T02:01:00.689Z,87.75
2022-12-09T02:03:27.268Z,87.96
2022-12-09T02:05:54.071Z,88.38
2022-12-09T02:08:20.711Z,88.10
2022-12-09T02:11:16.092Z,88.03
2022-12-09T02:14:18.098Z,88.15
2022-12-09T02:17:17.145Z,88.27
2022-12-09T02:20:10.009Z,87.86
2022-12-09T02:22:49.917Z,87.64
2022-12-09T02:25:28.993Z,87.39
2022-12-09T02:28:13.991Z,87.19
2022-12-09T02:30:52.183Z,87.02
2022-12-09T02:33:40.795Z,86.85
2022-12-09T02:36:16.716Z,86.07
2022-12-09T02:38:45.054Z,86.75
2022-12-09T02:41:33.653Z,86.73
2022-12-09T02:44:12.447Z,86.02
2022-12-09T02:46:41.125Z,86.42
2022-12-09T02:49:10.840Z,86.86
2022-12-09T02:51:42.202Z,86.07
2022-12-09T02:54:17.237Z,85.02
2022-12-09T02:56:51.829Z,84.48
2022-12-09T02:59:18.586Z,84.37
2022-12-09T03:01:51.233Z,84.13
2022-12-09T03:04:22.994Z,83.70
2022-12-09T03:06:54.846Z,84.05
2022-12-09T03:09:25.997Z,83.86
2022-12-09T03:11:55.187Z,83.58
2022-12-09T03:14:36.108Z,83.28
2022-12-09T03:17:21.160Z,83.31
2022-12-09T03:19:52.782Z,83.20
2022-12-09T03:22:24.172Z,83.15
2022-12-09T03:24:57.705Z,83.00
2022-12-09T03:27:33.684Z,83.15
2022-12-09T03:30:03.292Z,83.58
2022-12-09T03:32:31.846Z,83.42
2022-12-09T03:35:04.600Z,83.61
2022-12-09T03:37:33.009Z,83.30
2022-12-09T03:40:00.701Z,83.49
2022-12-09T03:42:36.194Z,83.03
2022-12-09T03:45:09.663Z,83.13
2022-12-09T03:47:37.079Z,83.13
2022-12-09T03:50:06.599Z,83.43
2022-12-09T03:52:47.714Z,82.87
2022-12-09T03:55:33.842Z,82.38
2022-12-09T03:58:03.534Z,82.44
2022-12-09T04:00:31.117Z,82.32
2022-12-09T04:02:57.628Z,82.77
2022-12-09T04:05:24.448Z,82.80
2022-12-09T04:07:51.118Z,82.77
2022-12-09T04:10:17.566Z,82.52
2022-12-09T04:12:43.986Z,82.95
2022-12-09T04:15:10.590Z,82.95
2022-12-09T04:17:37.063Z,83.24
2022-12-09T04:20:04.135Z,82.76
2022-12-09T04:22:30.681Z,82.71
2022-12-09T04:24:57.332Z,82.74
2022-12-09T04:27:23.882Z,82.58
2022-12-09T04:29:50.638Z,82.76
2022-12-09T04:32:17.170Z,82.97
2022-12-09T04:34:44.184Z,82.75
2022-12-09T04:37:10.607Z,83.47
2022-12-09T04:39:37.853Z,83.42
2022-12-09T04:42:04.218Z,82.85
2022-12-09T04:44:31.036Z,83.05
2022-12-09T04:46:57.733Z,83.20
2022-12-09T04:49:24.444Z,83.31
2022-12-09T04:51:51.007Z,83.18
2022-12-09T04:54:17.394Z,82.83
2022-12-09T04:56:44.488Z,83.22
2022-12-09T04:59:11.095Z,83.50
2022-12-09T05:01:37.912Z,83.56
2022-12-09T05:04:04.877Z,83.82
2022-12-09T05:06:32.065Z,83.31
2022-12-09T05:08:58.846Z,83.60
2022-12-09T05:11:25.956Z,83.70
2022-12-09T05:13:56.027Z,83.99
2022-12-09T05:16:23.188Z,83.81
2022-12-09T05:18:50.018Z,83.28
2022-12-09T05:21:18.797Z,83.53
2022-12-09T05:23:46.487Z,84.13
2022-12-09T05:26:15.451Z,83.75
2022-12-09T05:28:42.474Z,83.36
2022-12-09T05:31:15.535Z,83.76
2022-12-09T05:33:43.223Z,83.84
2022-12-09T05:36:11.229Z,83.72
2022-12-09T05:38:38.250Z,83.74
2022-12-09T05:41:05.333Z,83.63
2022-12-09T05:43:33.353Z,83.35
2022-12-09T05:46:01.840Z,83.67
2022-12-09T05:48:28.736Z,83.53
2022-12-09T05:51:07.481Z,83.36
2022-12-09T05:53:34.628Z,83.65
2022-12-09T05:56:02.092Z,83.29
2022-12-09T05:58:28.915Z,83.65
2022-12-09T06:00:58.037Z,83.33
2022-12-09T06:03:25.440Z,83.86
2022-12-09T06:05:52.378Z,83.50
2022-12-09T06:08:19.064Z,84.29
2022-12-09T06:10:46.287Z,83.78
2022-12-09T06:13:12.840Z,84.17
2022-12-09T06:15:40.384Z,84.07
2022-12-09T06:18:07.178Z,84.15
2022-12-09T06:20:33.729Z,84.41
2022-12-09T06:23:00.166Z,84.15
2022-12-09T06:25:26.830Z,84.05
2022-12-09T06:27:53.892Z,84.75
2022-12-09T06:30:20.627Z,84.43
2022-12-09T06:32:47.568Z,84.14
2022-12-09T06:35:15.198Z,85.10
2022-12-09T06:37:42.349Z,85.36
2022-12-09T06:40:09.406Z,84.66
2022-12-09T06:42:36.431Z,85.17
2022-12-09T06:45:03.812Z,84.60
2022-12-09T06:47:30.477Z,84.19
2022-12-09T06:50:04.390Z,84.52
2022-12-09T06:52:32.900Z,84.82
2022-12-09T06:54:59.448Z,84.26
2022-12-09T06:57:26.248Z,84.67
2022-12-09T06:59:53.058Z,85.31
2022-12-09T07:02:19.762Z,84.87
2022-12-09T07:04:46.886Z,85.25
2022-12-09T07:07:15.134Z,84.94
2022-12-09T07:09:41.936Z,84.34
2022-12-09T07:12:08.616Z,84.72
2022-12-09T07:14:36.365Z,85.20
2022-12-09T07:17:03.879Z,84.51
2022-12-09T07:19:31.359Z,84.67
2022-12-09T07:21:58.040Z,84.67
2022-12-09T07:24:25.426Z,85.07
2022-12-09T07:26:52.628Z,84.94
2022-12-09T07:29:19.494Z,85.22
2022-12-09T07:31:47.661Z,85.12
2022-12-09T07:34:14.513Z,85.08
2022-12-09T07:36:41.509Z,84.75
2022-12-09T07:39:12.186Z,84.90
2022-12-09T07:41:40.035Z,84.55
2022-12-09T07:44:06.845Z,85.18
2022-12-09T07:46:33.446Z,84.62
2022-12-09T07:49:02.777Z,84.59
2022-12-09T07:51:29.620Z,85.23
2022-12-09T07:53:57.136Z,85.42
2022-12-09T07:56:24.776Z,85.41
2022-12-09T07:58:53.160Z,85.21
2022-12-09T08:01:29.382Z,85.13
2022-12-09T08:03:56.750Z,84.79
2022-12-09T08:06:27.258Z,84.99
2022-12-09T08:08:54.994Z,85.19
2022-12-09T08:11:27.468Z,84.66
2022-12-09T08:13:57.656Z,84.51
2022-12-09T08:16:25.232Z,84.48
2022-12-09T08:18:53.735Z,85.02
2022-12-09T08:21:25.578Z,84.40
2022-12-09T08:23:52.844Z,85.17
2022-12-09T08:26:22.686Z,84.59
2022-12-09T08:28:50.416Z,84.66
2022-12-09T08:31:20.869Z,84.73
2022-12-09T08:33:48.370Z,84.85
2022-12-09T08:36:19.757Z,84.80
2022-12-09T08:38:47.480Z,84.82
2022-12-09T08:41:21.516Z,84.60
2022-12-09T08:43:48.570Z,84.87
2022-12-09T08:46:15.470Z,84.30
2022-12-09T08:48:42.841Z,84.39
2022-12-09T08:51:11.571Z,83.72
2022-12-09T08:53:38.516Z,83.70
2022-12-09T08:56:12.873Z,83.44
2022-12-09T08:58:40.352Z,83.63
2022-12-09T09:01:07.259Z,81.87
2022-12-09T09:03:34.319Z,81.62
2022-12-09T09:06:09.191Z,81.90
2022-12-09T09:08:37.411Z,82.04
2022-12-09T09:11:10.403Z,81.60
2022-12-09T09:13:39.239Z,81.64
2022-12-09T09:16:10.522Z,81.18
2022-12-09T09:18:37.688Z,81.20
2022-12-09T09:21:06.259Z,80.89
2022-12-09T09:23:32.678Z,81.07
2022-12-09T09:25:59.169Z,81.21
2022-12-09T09:28:30.686Z,80.98
2022-12-09T09:31:03.280Z,80.93
2022-12-09T09:33:30.756Z,80.85
2022-12-09T09:36:02.791Z,80.54
2022-12-09T09:38:35.387Z,80.92
2022-12-09T09:41:07.605Z,80.98
2022-12-09T09:43:38.996Z,81.04
2022-12-09T09:46:06.257Z,81.55
2022-12-09T09:48:35.932Z,82.02
2022-12-09T09:51:14.512Z,81.58
2022-12-09T09:53:42.418Z,81.22
2022-12-09T09:56:36.959Z,81.63
2022-12-09T09:59:06.544Z,81.32
2022-12-09T10:01:35.735Z,81.53
2022-12-09T10:04:33.706Z,81.48
2022-12-09T10:07:15.987Z,81.03
2022-12-09T10:09:53.196Z,81.28
2022-12-09T10:12:30.541Z,80.74
2022-12-09T10:15:09.663Z,81.12
2022-12-09T10:17:49.176Z,80.11
2022-12-09T10:20:21.228Z,79.95
2022-12-09T10:23:01.048Z,79.46
2022-12-09T10:25:31.073Z,79.26
2022-12-09T10:28:12.892Z,79.17
2022-12-09T10:30:43.878Z,79.93
2022-12-09T10:33:17.401Z,79.87
2022-12-09T10:35:45.145Z,79.81
2022-12-09T10:38:16.203Z,79.97
2022-12-09T10:40:45.954Z,79.41
2022-12-09T10:43:37.401Z,79.31
2022-12-09T10:46:20.089Z,79.58
2022-12-09T10:48:47.788Z,78.54
2022-12-09T10:51:25.965Z,78.59
2022-12-09T10:54:03.502Z,78.73
2022-12-09T10:56:35.817Z,78.78
2022-12-09T10:59:11.617Z,79.20
2022-12-09T11:01:53.165Z,78.89
2022-12-09T11:04:36.809Z,78.59
2022-12-09T11:07:13.094Z,78.54
2022-12-09T11:09:43.789Z,78.66
2022-12-09T11:12:27.344Z,78.83
2022-12-09T11:14:57.737Z,78.41
2022-12-09T11:18:04.313Z,78.29
2022-12-09T11:20:33.694Z,78.17
2022-12-09T11:23:12.374Z,77.94
2022-12-09T11:25:51.832Z,77.88
2022-12-09T11:28:18.167Z,77.52
2022-12-09T11:31:32.725Z,77.44
2022-12-09T11:34:06.778Z,77.32
2022-12-09T11:36:40.357Z,76.94
2022-12-09T11:39:29.278Z,77.58
2022-12-09T11:42:18.902Z,77.40
2022-12-09T11:45:02.334Z,77.27
2022-12-09T11:48:13.503Z,77.07
2022-12-09T11:50:31.311Z,77.10
2022-12-09T11:53:12.982Z,77.28
2022-12-09T11:55:51.061Z,76.20
2022-12-09T11:58:29.443Z,75.98
2022-12-09T12:01:02.690Z,76.05
2022-12-09T12:03:42.206Z,76.41
2022-12-09T12:06:17.641Z,75.96
2022-12-09T12:08:49.666Z,75.63
2022-12-09T12:11:21.039Z,76.35
2022-12-09T12:13:50.603Z,74.68
2022-12-09T12:16:39.488Z,73.82
2022-12-09T12:19:17.338Z,74.10
2022-12-09T12:21:55.683Z,73.68
2022-12-09T12:24:59.599Z,73.17
2022-12-09T12:27:59.883Z,74.21
2022-12-09T12:30:39.555Z,73.94
2022-12-09T12:36:33.574Z,74.13
2022-12-09T12:39:19.561Z,72.49
2022-12-09T12:42:06.947Z,73.34
2022-12-09T12:45:20.090Z,73.48
2022-12-09T12:48:03.274Z,73.23
2022-12-09T12:50:55.575Z,73.20
2022-12-09T12:53:34.434Z,73.36
2022-12-09T12:56:27.671Z,74.15
2022-12-09T12:59:09.720Z,73.51
2022-12-09T13:01:51.651Z,73.17
2022-12-09T13:04:34.039Z,73.34
2022-12-09T13:07:09.653Z,73.50
2022-12-09T13:09:51.124Z,73.04
2022-12-09T13:12:45.273Z,73.61
2022-12-09T13:15:16.746Z,73.11
2022-12-09T13:17:45.918Z,72.93
2022-12-09T13:20:24.880Z,72.63
2022-12-09T13:23:01.643Z,73.56
2022-12-09T13:25:46.298Z,72.51
2022-12-09T13:28:37.058Z,72.39
2022-12-09T13:31:08.995Z,71.98
2022-12-09T13:33:50.302Z,72.82
2022-12-09T13:36:36.290Z,71.99
2022-12-09T13:39:03.918Z,72.63
2022-12-09T13:41:30.183Z,71.83
2022-12-09T13:44:12.732Z,72.11
2022-12-09T13:46:42.620Z,71.46
2022-12-09T13:49:11.155Z,71.12
2022-12-09T13:51:51.582Z,71.10
2022-12-09T13:54:24.585Z,72.42
2022-12-09T13:57:40.313Z,73.00
2022-12-09T14:00:15.079Z,73.74
2022-12-09T14:03:00.178Z,73.39
2022-12-09T14:05:30.079Z,73.49
2022-12-09T14:08:04.572Z,74.01
2022-12-09T14:10:43.365Z,73.50
2022-12-09T14:13:29.717Z,72.51
2022-12-09T14:16:17.117Z,71.26
2022-12-09T14:18:44.421Z,71.50
2022-12-09T14:21:19.648Z,71.70
2022-12-09T14:24:07.871Z,71.76
2022-12-09T14:26:39.497Z,72.00
2022-12-09T14:29:05.932Z,72.16
2022-12-09T14:32:02.084Z,72.13
2022-12-09T14:34:35.387Z,72.84
2022-12-09T14:37:34.232Z,73.51
2022-12-09T14:40:25.117Z,73.37
2022-12-09T14:42:59.956Z,73.46
2022-12-09T14:45:38.179Z,73.63
2022-12-09T14:48:10.495Z,73.71
2022-12-09T14:50:38.630Z,73.84
2022-12-09T14:53:18.284Z,73.98
2022-12-09T14:55:44.838Z,73.84
2022-12-09T14:58:19.895Z,73.75
2022-12-09T15:00:46.641Z,74.22
2022-12-09T15:03:42.788Z,74.33
2022-12-09T15:06:12.718Z,74.34
2022-12-09T15:08:41.669Z,74.47
2022-12-09T15:11:13.590Z,74.66
2022-12-09T15:13:42.531Z,75.21
2022-12-09T15:16:14.594Z,75.08
2022-12-09T15:18:43.262Z,75.56
2022-12-09T15:21:10.147Z,75.64
2022-12-09T15:23:38.841Z,75.18
2022-12-09T15:26:07.854Z,75.60
2022-12-09T15:28:37.266Z,76.19
2022-12-09T15:31:16.292Z,76.28
2022-12-09T15:33:45.725Z,76.13
2022-12-09T15:36:22.096Z,76.51
2022-12-09T15:38:54.818Z,76.32
2022-12-09T15:41:40.616Z,76.72
2022-12-09T15:44:11.322Z,77.33
2022-12-09T15:46:40.649Z,77.71
2022-12-09T15:49:11.297Z,78.16
2022-12-09T15:51:40.363Z,78.72
2022-12-09T15:54:11.688Z,78.56
2022-12-09T15:57:00.908Z,78.72
2022-12-09T15:59:35.099Z,79.41
2022-12-09T16:02:01.844Z,79.59
2022-12-09T16:04:34.191Z,80.47
2022-12-09T16:07:08.651Z,80.02
2022-12-09T16:09:35.860Z,79.53
2022-12-09T16:12:02.341Z,79.99
2022-12-09T16:14:43.006Z,81.08
2022-12-09T16:17:24.660Z,81.24
2022-12-09T16:19:51.167Z,81.21
2022-12-09T16:22:25.035Z,82.56
2022-12-09T16:27:48.418Z,82.62
2022-12-09T16:30:23.605Z,83.79
2022-12-09T16:32:55.340Z,84.06
2022-12-09T16:35:43.324Z,83.76
2022-12-09T16:38:09.601Z,84.19
2022-12-09T16:40:45.141Z,84.95
2022-12-09T16:43:17.668Z,85.47
2022-12-09T16:45:51.205Z,86.63
2022-12-09T16:48:19.089Z,85.71
2022-12-09T16:50:53.038Z,86.40
2022-12-09T16:53:25.553Z,86.33
2022-12-09T16:55:55.239Z,86.71
2022-12-09T16:58:22.348Z,86.53
2022-12-09T17:00:49.598Z,88.03
2022-12-09T17:03:22.403Z,88.18
2022-12-09T17:05:48.752Z,86.85
2022-12-09T17:08:15.180Z,86.71
2022-12-09T17:10:42.266Z,87.29
2022-12-09T17:13:08.635Z,86.57
2022-12-09T17:15:35.059Z,86.61
2022-12-09T17:18:01.441Z,87.65
2022-12-09T17:20:27.796Z,86.57
2022-12-09T17:22:54.099Z,86.42
2022-12-09T17:25:20.401Z,86.64
2022-12-09T17:27:46.718Z,87.28
2022-12-09T17:30:13.380Z,87.52
2022-12-09T17:32:39.831Z,86.25
2022-12-09T17:35:12.352Z,87.42
2022-12-09T17:37:39.189Z,87.32
2022-12-09T17:40:05.791Z,87.60
2022-12-09T17:42:33.057Z,86.95
2022-12-09T17:44:59.419Z,86.91
2022-12-09T17:47:26.984Z,87.80
2022-12-09T17:49:53.277Z,87.30
2022-12-09T17:52:19.620Z,86.90
2022-12-09T17:54:47.350Z,88.35
2022-12-09T17:57:13.809Z,86.83
2022-12-09T17:59:40.169Z,87.05
2022-12-09T18:02:06.901Z,88.01
2022-12-09T18:04:33.288Z,88.16
2022-12-09T18:06:59.658Z,87.63
2022-12-09T18:09:26.033Z,87.40
2022-12-09T18:11:52.504Z,87.22
2022-12-09T18:14:20.323Z,86.92
2022-12-09T18:16:46.744Z,88.01
2022-12-09T18:19:16.371Z,87.53
2022-12-09T18:21:44.158Z,86.96
2022-12-09T18:24:10.691Z,86.10
2022-12-09T18:26:41.545Z,87.20
2022-12-09T18:29:08.198Z,86.93
2022-12-09T18:31:34.939Z,87.10
2022-12-09T18:34:01.260Z,86.98
2022-12-09T18:36:28.745Z,86.12
2022-12-09T18:38:55.162Z,86.22
2022-12-09T18:41:24.220Z,86.66
2022-12-09T18:43:52.209Z,85.90
2022-12-09T18:46:25.380Z,87.00
2022-12-09T18:49:00.330Z,86.76
2022-12-09T18:51:27.904Z,86.25
2022-12-09T18:53:56.215Z,86.70
2022-12-09T18:56:22.531Z,86.60
2022-12-09T19:01:39.357Z,85.97
2022-12-09T19:04:08.557Z,86.56
2022-12-09T19:06:37.750Z,86.48
2022-12-09T19:09:09.028Z,86.16
2022-12-09T19:11:38.298Z,85.33
2022-12-09T19:14:07.212Z,86.45
2022-12-09T19:16:34.899Z,86.37
2022-12-09T19:19:08.777Z,85.08
2022-12-09T19:21:36.457Z,86.00
2022-12-09T19:24:02.780Z,85.72
2022-12-09T19:26:31.452Z,85.46
2022-12-09T19:29:01.276Z,86.09
2022-12-09T19:31:30.105Z,85.67
2022-12-09T19:34:01.740Z,86.01
2022-12-09T19:36:29.593Z,86.00
2022-12-09T19:38:57.873Z,86.11
2022-12-09T19:41:24.251Z,86.04
2022-12-09T19:43:55.310Z,85.68
2022-12-09T19:46:21.673Z,84.99
2022-12-09T19:48:48.083Z,86.09
2022-12-09T19:51:19.084Z,84.91
2022-12-09T19:53:47.525Z,84.74
2022-12-09T19:56:16.700Z,84.54
2022-12-09T19:58:43.805Z,84.79
2022-12-09T20:01:13.315Z,85.45
2022-12-09T20:03:41.521Z,84.41
2022-12-09T20:06:11.239Z,84.26
2022-12-09T20:08:38.704Z,84.77
2022-12-09T20:11:09.002Z,85.49
2022-12-09T20:13:35.378Z,85.00
2022-12-09T20:16:06.050Z,84.71
2022-12-09T20:18:32.469Z,83.90
2022-12-09T20:21:06.612Z,85.18
2022-12-09T20:23:35.327Z,84.00
2022-12-09T20:26:11.105Z,84.89
2022-12-09T20:28:39.732Z,84.51
2022-12-09T20:31:33.938Z,84.74
2022-12-09T20:34:03.025Z,84.83
2022-12-09T20:36:32.398Z,85.75
2022-12-09T20:39:02.060Z,85.36
2022-12-09T20:41:28.986Z,85.73
2022-12-09T20:43:57.352Z,84.37
2022-12-09T20:46:27.584Z,84.85
2022-12-09T20:48:54.695Z,84.80
2022-12-09T20:51:31.638Z,85.42
2022-12-09T20:53:58.732Z,84.90
2022-12-09T20:56:27.029Z,84.35
2022-12-09T20:58:54.753Z,84.08
2022-12-09T21:01:28.882Z,84.46
2022-12-09T21:03:57.513Z,85.57
2022-12-09T21:06:26.523Z,84.32
2022-12-09T21:08:53.731Z,85.29
2022-12-09T21:11:23.580Z,85.37
2022-12-09T21:13:52.356Z,85.00
2022-12-09T21:16:22.106Z,85.36
2022-12-09T21:18:50.066Z,84.96
2022-12-09T21:21:17.702Z,85.88
2022-12-09T21:23:44.250Z,85.37
2022-12-09T21:26:15.910Z,85.76
2022-12-09T21:28:43.874Z,85.25
2022-12-09T21:31:22.143Z,84.48
2022-12-09T21:33:50.256Z,84.52
2022-12-09T21:36:25.871Z,85.10
2022-12-09T21:38:53.247Z,85.54
2022-12-09T21:41:22.226Z,85.61
2022-12-09T21:43:48.758Z,84.90
2022-12-09T21:46:18.783Z,84.70
2022-12-09T21:48:51.962Z,84.78
2022-12-09T21:51:19.926Z,86.04
2022-12-09T21:53:46.895Z,85.18
2022-12-09T21:56:17.547Z,84.97
2022-12-09T21:58:45.522Z,84.77
2022-12-09T22:01:16.539Z,84.89
2022-12-09T22:03:43.394Z,85.48
2022-12-09T22:06:10.700Z,85.80
2022-12-09T22:08:38.553Z,86.13
2022-12-09T22:11:17.827Z,85.54
2022-12-09T22:13:44.772Z,86.25
2022-12-09T22:16:18.192Z,84.66
2022-12-09T22:18:45.090Z,85.05
2022-12-09T22:21:24.576Z,86.07
2022-12-09T22:23:57.907Z,85.67
2022-12-09T22:26:25.200Z,85.84
2022-12-09T22:28:52.887Z,85.91
2022-12-09T22:31:26.289Z,85.20
2022-12-09T22:33:54.920Z,86.43
2022-12-09T22:36:21.827Z,85.52
2022-12-09T22:38:48.769Z,85.06
2022-12-09T22:41:18.311Z,85.54
2022-12-09T22:43:45.061Z,84.97
2022-12-09T22:46:14.874Z,85.03
2022-12-09T22:48:42.031Z,85.64
2022-12-09T22:51:17.831Z,86.58
2022-12-09T22:53:45.011Z,85.77
2022-12-09T22:56:12.461Z,85.95
2022-12-09T22:58:39.430Z,85.70
2022-12-09T23:01:14.347Z,85.82
2022-12-09T23:03:41.274Z,86.53
2022-12-09T23:06:08.302Z,86.67
2022-12-09T23:08:36.293Z,86.37
2022-12-09T23:11:05.017Z,85.57
2022-12-09T23:13:33.907Z,86.65
2022-12-09T23:16:05.766Z,85.82
2022-12-09T23:18:33.921Z,85.50
2022-12-09T23:21:13.197Z,86.00
2022-12-09T23:23:40.317Z,85.85
2022-12-09T23:26:12.026Z,86.47
2022-12-09T23:28:40.240Z,86.94
2022-12-09T23:31:11.229Z,86.13
2022-12-09T23:33:39.411Z,85.98
2022-12-09T23:36:08.878Z,85.71
2022-12-09T23:38:35.454Z,86.93
2022-12-09T23:41:02.355Z,86.84
2022-12-09T23:43:36.478Z,85.92
2022-12-09T23:46:15.792Z,86.88
2022-12-09T23:48:43.454Z,87.11
2022-12-09T23:51:30.896Z,86.57
2022-12-09T23:54:02.916Z,86.52
2022-12-09T23:56:31.662Z,86.08
2022-12-09T23:59:03.278Z,86.50
